createdAt,value
2023-04-02T00:01:01.511Z,58.22
2023-04-02T00:03:45.841Z,49.33
2023-04-02T00:06:44.473Z,47.78
2023-04-02T00:09:31.231Z,40.95
2023-04-02T00:12:00.415Z,42.35
2023-04-02T00:14:33.352Z,42.58
2023-04-02T00:17:02.573Z,43.05
2023-04-02T00:19:38.196Z,45.15
2023-04-02T00:22:08.772Z,46.58
2023-04-02T00:24:35.554Z,43.92
2023-04-02T00:27:01.922Z,47.03
2023-04-02T00:29:28.387Z,50.63
2023-04-02T00:31:58.837Z,48.15
2023-04-02T00:34:42.939Z,49.55
2023-04-02T00:37:23.561Z,46.35
2023-04-02T00:39:53.087Z,47.28
2023-04-02T00:42:21.124Z,44.95
2023-04-02T00:44:49.384Z,47.15
2023-04-02T00:47:21.384Z,48.67
2023-04-02T00:49:51.719Z,47.80
2023-04-02T00:52:22.592Z,51.47
2023-04-02T00:54:52.859Z,52.22
2023-04-02T00:57:26.559Z,52.85
2023-04-02T01:00:10.888Z,49.60
2023-04-02T01:02:40.629Z,47.97
2023-04-02T01:05:23.280Z,46.60
2023-04-02T01:08:12.892Z,43.38
2023-04-02T01:10:55.679Z,40.35
2023-04-02T01:13:40.617Z,43.47
2023-04-02T01:16:37.495Z,41.90
2023-04-02T01:19:18.237Z,39.85
2023-04-02T01:21:57.453Z,38.08
2023-04-02T01:24:29.749Z,42.22
2023-04-02T01:27:10.375Z,39.90
2023-04-02T01:29:46.110Z,41.58
2023-04-02T01:32:15.535Z,44.42
2023-04-02T01:34:45.204Z,46.50
2023-04-02T01:37:17.989Z,44.13
2023-04-02T01:40:18.326Z,46.08
2023-04-02T01:43:35.868Z,48.30
2023-04-02T01:46:24.588Z,43.72
2023-04-02T01:48:52.938Z,43.72
2023-04-02T01:51:32.212Z,48.45
2023-04-02T01:54:02.036Z,47.20
2023-04-02T01:56:30.451Z,43.58
2023-04-02T01:58:58.770Z,44.53
2023-04-02T02:01:31.986Z,45.83
2023-04-02T02:03:59.853Z,46.37
2023-04-02T02:06:26.352Z,44.65
2023-04-02T02:08:56.495Z,45.40
2023-04-02T02:11:26.922Z,43.53
2023-04-02T02:13:57.511Z,42.55
2023-04-02T02:16:27.078Z,45.58
2023-04-02T02:18:59.104Z,45.47
2023-04-02T02:21:47.204Z,44.55
2023-04-02T02:24:33.576Z,41.42
2023-04-02T02:27:14.918Z,42.60
2023-04-02T02:29:43.846Z,44.92
2023-04-02T02:32:12.019Z,43.30
2023-04-02T02:34:42.945Z,41.97
2023-04-02T02:37:28.224Z,43.33
2023-04-02T02:39:58.385Z,42.63
2023-04-02T02:42:40.698Z,45.35
2023-04-02T02:45:14.857Z,43.08
2023-04-02T02:50:18.141Z,39.45
2023-04-02T02:52:50.769Z,41.63
2023-04-02T02:55:24.043Z,44.75
2023-04-02T02:57:56.143Z,46.57
2023-04-02T03:00:24.586Z,41.88
2023-04-02T03:02:54.624Z,43.72
2023-04-02T03:05:24.040Z,39.78
2023-04-02T03:07:53.279Z,38.38
2023-04-02T03:10:29.873Z,38.60
2023-04-02T03:13:19.718Z,37.55
2023-04-02T03:16:02.671Z,36.80
2023-04-02T03:18:42.453Z,38.42
2023-04-02T03:21:26.735Z,37.03
2023-04-02T03:23:57.577Z,37.47
2023-04-02T03:26:37.799Z,37.63
2023-04-02T03:29:28.487Z,35.80
2023-04-02T03:32:07.800Z,35.60
2023-04-02T03:34:44.494Z,34.53
2023-04-02T03:37:29.375Z,39.53
2023-04-02T03:40:04.514Z,39.72
2023-04-02T03:42:44.300Z,39.40
2023-04-02T03:45:16.278Z,34.75
2023-04-02T03:48:05.489Z,36.00
2023-04-02T03:50:36.961Z,34.85
2023-04-02T03:53:04.633Z,34.72
2023-04-02T03:55:36.980Z,35.25
2023-04-02T03:58:25.547Z,33.80
2023-04-02T04:01:10.201Z,35.58
2023-04-02T04:03:36.597Z,32.78
2023-04-02T04:06:19.662Z,33.45
2023-04-02T04:08:50.262Z,31.60
2023-04-02T04:11:22.616Z,32.47
2023-04-02T04:13:57.731Z,31.30
2023-04-02T04:16:32.279Z,32.15
2023-04-02T04:19:10.792Z,31.52
2023-04-02T04:21:37.481Z,32.13
2023-04-02T04:24:27.558Z,33.20
2023-04-02T04:27:09.451Z,34.47
2023-04-02T04:29:51.426Z,32.25
2023-04-02T04:32:27.528Z,32.95
2023-04-02T04:35:08.404Z,31.00
2023-04-02T04:37:39.332Z,32.58
2023-04-02T04:40:18.922Z,31.52
2023-04-02T04:42:47.411Z,30.38
2023-04-02T04:45:36.377Z,33.28
2023-04-02T04:48:16.643Z,33.15
2023-04-02T04:50:54.570Z,29.88
2023-04-02T04:53:23.991Z,32.63
2023-04-02T04:55:56.077Z,33.08
2023-04-02T04:58:33.590Z,31.02
2023-04-02T05:01:07.209Z,32.08
2023-04-02T05:03:44.940Z,30.38
2023-04-02T05:06:25.822Z,30.25
2023-04-02T05:08:59.119Z,30.33
2023-04-02T05:11:34.732Z,34.70
2023-04-02T05:14:06.778Z,34.95
2023-04-02T05:16:45.993Z,32.85
2023-04-02T05:19:30.901Z,34.13
2023-04-02T05:22:20.869Z,34.00
2023-04-02T05:24:56.879Z,35.75
2023-04-02T05:27:27.145Z,36.28
2023-04-02T05:30:23.591Z,39.20
2023-04-02T05:32:57.309Z,36.00
2023-04-02T05:35:32.640Z,40.15
2023-04-02T05:38:01.721Z,37.97
2023-04-02T05:40:36.281Z,36.50
2023-04-02T05:43:07.784Z,36.85
2023-04-02T05:45:38.862Z,38.53
2023-04-02T05:48:19.986Z,36.90
2023-04-02T05:50:53.140Z,39.75
2023-04-02T05:53:33.444Z,37.90
2023-04-02T05:56:21.695Z,35.90
2023-04-02T05:58:51.748Z,35.25
2023-04-02T06:01:45.320Z,38.78
2023-04-02T06:04:16.876Z,33.67
2023-04-02T06:06:49.634Z,33.00
2023-04-02T06:09:39.385Z,32.95
2023-04-02T06:12:24.295Z,32.65
2023-04-02T06:14:50.925Z,33.10
2023-04-02T06:17:19.249Z,33.10
2023-04-02T06:19:47.684Z,33.85
2023-04-02T06:22:36.829Z,37.15
2023-04-02T06:25:19.121Z,36.00
2023-04-02T06:27:47.409Z,38.33
2023-04-02T06:30:26.153Z,38.20
2023-04-02T06:32:52.528Z,37.25
2023-04-02T06:35:18.968Z,36.92
2023-04-02T06:37:51.915Z,36.00
2023-04-02T06:40:39.630Z,33.50
2023-04-02T06:43:16.280Z,34.83
2023-04-02T06:45:46.303Z,37.05
2023-04-02T06:48:21.344Z,36.20
2023-04-02T06:50:51.207Z,37.45
2023-04-02T06:53:24.301Z,40.47
2023-04-02T06:55:55.090Z,39.15
2023-04-02T06:58:21.654Z,39.65
2023-04-02T07:00:50.072Z,40.30
2023-04-02T07:03:24.086Z,39.42
2023-04-02T07:05:51.275Z,40.97
2023-04-02T07:08:21.272Z,40.80
2023-04-02T07:10:48.066Z,39.90
2023-04-02T07:13:23.006Z,40.90
2023-04-02T07:15:52.377Z,39.05
2023-04-02T07:18:26.875Z,39.83
2023-04-02T07:20:53.660Z,37.65
2023-04-02T07:23:21.116Z,38.30
2023-04-02T07:25:54.701Z,36.88
2023-04-02T07:28:22.924Z,37.05
2023-04-02T07:30:55.986Z,33.42
2023-04-02T07:33:25.852Z,33.55
2023-04-02T07:35:57.661Z,35.13
2023-04-02T07:38:24.454Z,34.05
2023-04-02T07:40:50.900Z,32.72
2023-04-02T07:43:17.454Z,30.23
2023-04-02T07:45:43.808Z,25.50
2023-04-02T07:48:14.564Z,20.08
2023-04-02T07:50:41.819Z,18.13
2023-04-02T07:53:17.038Z,17.23
2023-04-02T07:55:45.693Z,15.45
2023-04-02T07:58:12.162Z,14.32
2023-04-02T08:00:41.193Z,15.25
2023-04-02T08:03:07.857Z,14.43
2023-04-02T08:05:34.582Z,14.57
2023-04-02T08:08:01.505Z,14.52
2023-04-02T08:10:27.916Z,14.57
2023-04-02T08:12:55.042Z,14.88
2023-04-02T08:15:21.614Z,14.95
2023-04-02T08:17:48.293Z,14.60
2023-04-02T08:20:20.815Z,13.85
2023-04-02T08:23:10.950Z,13.80
2023-04-02T08:25:37.445Z,13.57
2023-04-02T08:28:03.992Z,13.95
2023-04-02T08:30:30.534Z,13.68
2023-04-02T08:32:58.182Z,13.50
2023-04-02T08:35:24.720Z,13.23
2023-04-02T08:37:52.406Z,12.40
2023-04-02T08:40:36.250Z,12.65
2023-04-02T08:43:38.883Z,13.15
2023-04-02T08:46:27.444Z,12.38
2023-04-02T08:48:58.306Z,11.13
2023-04-02T08:51:35.680Z,12.20
2023-04-02T08:54:21.090Z,11.57
2023-04-02T08:57:19.684Z,11.55
2023-04-02T08:59:47.156Z,11.10
2023-04-02T09:02:48.179Z,11.45
2023-04-02T09:05:31.413Z,10.95
2023-04-02T09:08:01.806Z,10.48
2023-04-02T09:10:42.473Z,10.77
2023-04-02T09:13:17.949Z,11.05
2023-04-02T09:15:44.789Z,12.18
2023-04-02T09:18:19.122Z,12.30
2023-04-02T09:20:48.102Z,11.32
2023-04-02T09:23:19.721Z,9.85
2023-04-02T09:26:03.546Z,9.98
2023-04-02T09:28:33.764Z,10.70
2023-04-02T09:31:21.638Z,10.30
2023-04-02T09:33:50.727Z,11.18
2023-04-02T09:36:33.537Z,12.57
2023-04-02T09:39:07.001Z,11.98
2023-04-02T09:41:50.177Z,12.07
2023-04-02T09:44:28.319Z,11.52
2023-04-02T09:47:03.392Z,10.75
2023-04-02T09:49:36.114Z,11.48
2023-04-02T09:52:25.855Z,10.52
2023-04-02T09:55:31.164Z,11.30
2023-04-02T09:58:14.124Z,11.40
2023-04-02T10:00:50.812Z,11.45
2023-04-02T10:03:35.330Z,12.40
2023-04-02T10:08:39.134Z,10.57
2023-04-02T10:11:36.356Z,12.40
2023-04-02T10:14:20.814Z,12.68
2023-04-02T10:16:58.266Z,12.25
2023-04-02T10:19:36.041Z,11.18
2023-04-02T10:22:14.293Z,12.27
2023-04-02T10:24:42.831Z,11.75
2023-04-02T10:27:44.673Z,12.45
2023-04-02T10:30:36.422Z,11.00
2023-04-02T10:33:17.855Z,10.73
2023-04-02T10:35:56.224Z,11.70
2023-04-02T10:39:04.852Z,11.20
2023-04-02T10:41:40.201Z,10.68
2023-04-02T10:44:21.918Z,11.02
2023-04-02T10:47:05.024Z,11.02
2023-04-02T10:50:03.311Z,10.50
2023-04-02T10:52:39.277Z,9.40
2023-04-02T10:55:28.105Z,9.70
2023-04-02T11:02:36.213Z,11.27
2023-04-02T11:09:02.637Z,11.73
2023-04-02T11:11:44.382Z,11.00
2023-04-02T11:32:34.157Z,7.75
2023-04-02T11:35:07.113Z,8.13
2023-04-02T11:37:39.846Z,8.15
2023-04-02T11:40:16.342Z,9.43
2023-04-02T11:42:47.553Z,9.65
2023-04-02T11:45:20.932Z,8.98
2023-04-02T11:48:02.347Z,9.10
2023-04-02T11:50:37.558Z,9.82
2023-04-02T11:53:13.168Z,9.52
2023-04-02T11:56:07.461Z,9.65
2023-04-02T11:58:46.241Z,9.60
2023-04-02T12:01:47.511Z,8.48
2023-04-02T12:04:27.710Z,8.57
2023-04-02T12:07:01.208Z,8.77
2023-04-02T12:12:24.622Z,8.20
2023-04-02T12:14:54.566Z,8.70
2023-04-02T12:17:29.390Z,9.30
2023-04-02T12:20:03.588Z,9.77
2023-04-02T12:22:33.359Z,8.95
2023-04-02T12:25:18.582Z,9.27
2023-04-02T12:27:46.649Z,9.10
2023-04-02T12:30:16.670Z,9.15
2023-04-02T12:32:43.685Z,8.35
2023-04-02T12:35:32.391Z,8.82
2023-04-02T12:37:59.417Z,8.48
2023-04-02T12:40:28.708Z,8.75
2023-04-02T12:42:55.451Z,9.00
2023-04-02T12:45:26.159Z,8.73
2023-04-02T12:48:00.040Z,9.27
2023-04-02T12:50:26.719Z,9.30
2023-04-02T12:52:55.605Z,9.25
2023-04-02T12:55:24.540Z,8.63
2023-04-02T12:57:58.975Z,8.98
2023-04-02T13:04:08.562Z,7.28
2023-04-02T13:06:36.378Z,8.15
2023-04-02T13:09:06.042Z,7.43
2023-04-02T13:11:51.506Z,7.88
2023-04-02T13:14:22.681Z,7.82
2023-04-02T13:16:49.187Z,7.57
2023-04-02T13:22:31.924Z,7.60
2023-04-02T13:24:58.521Z,7.50
2023-04-02T13:27:25.004Z,7.70
2023-04-02T13:29:52.787Z,7.13
2023-04-02T13:32:22.234Z,7.13
2023-04-02T13:34:51.315Z,6.95
2023-04-02T13:37:17.711Z,7.15
2023-04-02T13:39:44.345Z,7.05
2023-04-02T13:42:12.878Z,7.90
2023-04-02T13:44:39.609Z,7.32
2023-04-02T13:47:06.329Z,7.03
2023-04-02T13:49:32.822Z,6.97
2023-04-02T13:52:46.837Z,6.82
2023-04-02T13:55:26.108Z,6.53
2023-04-02T13:57:52.531Z,6.57
2023-04-02T14:00:19.834Z,6.40
2023-04-02T14:03:15.061Z,6.45
2023-04-02T14:05:55.651Z,6.10
2023-04-02T14:08:59.081Z,7.03
2023-04-02T14:11:57.832Z,6.70
2023-04-02T14:14:57.446Z,6.85
2023-04-02T14:17:48.949Z,6.93
2023-04-02T14:20:44.353Z,7.28
2023-04-02T14:23:37.585Z,6.97
2023-04-02T14:26:39.402Z,7.35
2023-04-02T14:29:25.189Z,6.80
2023-04-02T14:32:14.840Z,7.13
2023-04-02T14:34:44.211Z,6.35
2023-04-02T14:37:30.751Z,6.65
2023-04-02T14:40:03.957Z,5.82
2023-04-02T14:42:48.753Z,5.75
2023-04-02T14:45:51.669Z,5.93
2023-04-02T14:48:52.090Z,5.60
2023-04-02T14:51:40.769Z,5.95
2023-04-02T14:54:28.074Z,6.15
2023-04-02T14:56:59.201Z,5.57
2023-04-02T14:59:50.669Z,6.22
2023-04-02T15:02:27.679Z,5.82
2023-04-02T15:05:03.381Z,5.95
2023-04-02T15:07:48.786Z,6.07
2023-04-02T15:10:29.485Z,5.75
2023-04-02T15:12:57.290Z,5.68
2023-04-02T15:15:52.520Z,5.55
2023-04-02T15:18:19.097Z,5.47
2023-04-02T15:21:09.385Z,5.13
2023-04-02T15:23:51.283Z,5.40
2023-04-02T15:26:36.236Z,5.28
2023-04-02T15:29:28.850Z,6.10
2023-04-02T15:32:03.283Z,5.25
2023-04-02T15:34:43.972Z,5.43
2023-04-02T15:37:35.841Z,4.90
2023-04-02T15:40:38.262Z,5.35
2023-04-02T15:43:29.604Z,5.20
2023-04-02T15:46:23.771Z,5.10
2023-04-02T15:48:56.399Z,6.07
2023-04-02T15:51:33.609Z,4.95
2023-04-02T15:54:16.151Z,5.22
2023-04-02T15:56:59.299Z,5.70
2023-04-02T15:59:43.927Z,5.70
2023-04-02T16:05:10.128Z,5.40
2023-04-02T16:14:46.942Z,5.00
2023-04-02T16:17:36.705Z,5.47
2023-04-02T16:47:22.346Z,6.00
2023-04-02T17:08:06.979Z,5.15
2023-04-02T17:14:15.453Z,5.95
2023-04-02T17:16:54.820Z,6.25
2023-04-02T17:19:29.472Z,6.07
2023-04-02T17:22:18.799Z,5.82
2023-04-02T17:25:19.305Z,4.82
2023-04-02T17:27:51.790Z,5.00
2023-04-02T17:30:38.463Z,5.75
2023-04-02T17:33:17.331Z,4.80
2023-04-02T17:36:05.614Z,5.93
2023-04-02T17:39:05.661Z,5.63
2023-04-02T17:42:15.863Z,5.28
2023-04-02T17:44:46.668Z,6.35
2023-04-02T17:51:54.916Z,5.30
2023-04-02T17:54:46.645Z,5.57
2023-04-02T17:57:18.992Z,5.43
2023-04-02T18:00:02.492Z,5.78
2023-04-02T18:02:51.987Z,5.50
2023-04-02T18:05:54.482Z,6.30
2023-04-02T18:08:43.866Z,5.20
2023-04-02T18:11:29.635Z,6.18
2023-04-02T18:14:35.530Z,5.03
2023-04-02T18:17:19.511Z,6.30
2023-04-02T18:19:53.482Z,7.07
2023-04-02T18:23:03.233Z,6.40
2023-04-02T18:25:50.012Z,5.63
2023-04-02T18:28:23.000Z,5.68
2023-04-02T18:31:37.299Z,5.82
2023-04-02T18:34:34.822Z,5.57
2023-04-02T18:37:28.507Z,6.47
2023-04-02T18:40:10.183Z,5.97
2023-04-02T18:43:14.011Z,5.50
2023-04-02T18:45:51.692Z,5.05
2023-04-02T18:48:28.941Z,4.97
2023-04-02T18:50:55.759Z,5.13
2023-04-02T18:53:24.849Z,5.47
2023-04-02T18:56:13.102Z,5.15
2023-04-02T18:58:52.555Z,5.25
2023-04-02T19:01:29.874Z,4.78
2023-04-02T19:04:22.189Z,4.72
2023-04-02T19:07:11.206Z,5.35
2023-04-02T19:09:42.766Z,5.35
2023-04-02T19:12:19.089Z,4.95
2023-04-02T19:14:50.152Z,4.97
2023-04-02T19:17:31.452Z,5.88
2023-04-02T19:20:34.288Z,5.75
2023-04-02T19:23:23.533Z,5.53
2023-04-02T19:26:06.256Z,6.00
2023-04-02T19:28:59.829Z,6.28
2023-04-02T19:31:52.442Z,5.20
2023-04-02T19:34:39.656Z,5.60
2023-04-02T19:37:35.499Z,5.82
2023-04-02T19:40:39.270Z,5.45
2023-04-02T19:43:14.050Z,5.75
2023-04-02T19:45:43.147Z,5.32
2023-04-02T19:48:20.438Z,5.35
2023-04-02T19:50:53.232Z,4.53
2023-04-02T19:53:20.523Z,5.20
2023-04-02T19:55:49.382Z,5.20
2023-04-02T19:58:27.835Z,5.32
2023-04-02T20:00:54.875Z,4.72
2023-04-02T20:03:30.736Z,4.85
2023-04-02T20:06:02.768Z,5.35
2023-04-02T20:08:29.393Z,5.18
2023-04-02T20:10:58.428Z,5.43
2023-04-02T20:13:24.925Z,5.85
2023-04-02T20:15:52.891Z,5.68
2023-04-02T20:18:22.351Z,5.55
2023-04-02T20:20:49.364Z,5.57
2023-04-02T20:23:16.606Z,5.70
2023-04-02T20:25:53.338Z,5.50
2023-04-02T20:28:24.477Z,5.63
2023-04-02T20:30:51.426Z,5.70
2023-04-02T20:33:23.985Z,5.30
2023-04-02T20:35:51.966Z,4.90
2023-04-02T20:38:18.946Z,5.05
2023-04-02T20:40:51.934Z,7.85
2023-04-02T20:43:18.678Z,8.30
2023-04-02T20:45:54.562Z,6.55
2023-04-02T20:48:22.130Z,6.07
2023-04-02T20:50:49.181Z,5.72
2023-04-02T20:53:16.644Z,5.22
2023-04-02T20:55:46.601Z,4.93
2023-04-02T20:58:15.350Z,5.20
2023-04-02T21:00:42.080Z,5.53
2023-04-02T21:03:09.902Z,5.75
2023-04-02T21:05:47.182Z,5.70
2023-04-02T21:08:16.621Z,5.93
2023-04-02T21:10:43.007Z,5.25
2023-04-02T21:13:09.375Z,6.13
2023-04-02T21:15:43.094Z,7.00
2023-04-02T21:18:09.611Z,7.00
2023-04-02T21:20:35.987Z,6.50
2023-04-02T21:23:04.809Z,5.93
2023-04-02T21:25:31.490Z,6.18
2023-04-02T21:27:57.885Z,6.05
2023-04-02T21:30:24.313Z,5.68
2023-04-02T21:32:50.892Z,6.13
2023-04-02T21:35:17.400Z,6.00
2023-04-02T21:37:44.262Z,5.55
2023-04-02T21:40:11.800Z,5.68
2023-04-02T21:42:38.362Z,5.63
2023-04-02T21:45:08.216Z,5.30
2023-04-02T21:47:35.828Z,5.72
2023-04-02T21:50:02.381Z,5.40
2023-04-02T21:52:28.811Z,5.05
2023-04-02T21:54:55.253Z,4.75
2023-04-02T21:57:21.687Z,5.10
2023-04-02T21:59:48.109Z,5.38
2023-04-02T22:02:16.820Z,5.35
2023-04-02T22:04:43.186Z,5.70
2023-04-02T22:07:09.655Z,5.63
2023-04-02T22:09:36.164Z,5.55
2023-04-02T22:12:02.747Z,6.10
2023-04-02T22:14:29.442Z,6.03
2023-04-02T22:16:56.094Z,5.43
2023-04-02T22:19:22.573Z,5.32
2023-04-02T22:21:49.257Z,6.03
2023-04-02T22:24:18.764Z,5.28
2023-04-02T22:26:49.048Z,5.60
2023-04-02T22:29:16.186Z,5.78
2023-04-02T22:31:42.737Z,5.82
2023-04-02T22:34:09.507Z,5.70
2023-04-02T22:36:36.096Z,5.30
2023-04-02T22:39:05.551Z,5.50
2023-04-02T22:41:32.653Z,5.65
2023-04-02T22:44:00.816Z,5.55
2023-04-02T22:46:28.362Z,5.93
2023-04-02T22:48:55.731Z,5.30
2023-04-02T22:51:23.753Z,5.55
2023-04-02T22:53:52.449Z,5.60
2023-04-02T22:56:24.359Z,5.95
2023-04-02T22:58:50.937Z,5.97
2023-04-02T23:01:22.404Z,5.97
2023-04-02T23:03:49.320Z,5.53
2023-04-02T23:06:20.717Z,5.30
2023-04-02T23:08:47.402Z,6.00
2023-04-02T23:11:22.767Z,6.13
2023-04-02T23:13:51.556Z,6.63
2023-04-02T23:16:24.270Z,6.50
2023-04-02T23:18:50.846Z,6.60
2023-04-02T23:21:19.406Z,5.85
2023-04-02T23:23:47.005Z,6.25
2023-04-02T23:26:16.829Z,6.30
2023-04-02T23:28:43.983Z,5.95
2023-04-02T23:31:16.186Z,6.90
2023-04-02T23:33:43.143Z,6.35
2023-04-02T23:36:21.111Z,7.22
2023-04-02T23:38:47.712Z,7.57
2023-04-02T23:41:15.775Z,7.90
2023-04-02T23:43:42.635Z,8.80
2023-04-02T23:46:09.364Z,9.07
2023-04-02T23:48:35.743Z,8.55
2023-04-02T23:51:02.197Z,7.85
2023-04-02T23:53:28.552Z,7.68
2023-04-02T23:55:54.903Z,7.53
2023-04-02T23:58:21.366Z,8.20
